Time;durP1;ratioP1;P1;durP2;ratioP2;P2;SDS_P1;SDS_P2;PMS_P1;PMS_P2;Temp;Humidity;BMP_temperature;BMP_pressure;BME280_temperature;BME280_humidity;BME280_pressure;Samples;Min_cycle;Max_cycle;Signal;HPM_P1;HPM_P2
2022/06/13 00:00:26;;;;;;;6.70;4.20;;;;;;;13.17;70.81;102003.31;5011694;28;20050;-57
2022/06/13 00:02:52;;;;;;;10.18;4.75;;;;;;;13.20;70.34;102005.78;5006251;28;20087;-58
2022/06/13 00:05:17;;;;;;;11.43;4.50;;;;;;;13.19;70.44;101994.25;5011739;28;20034;-57
2022/06/13 00:07:42;;;;;;;9.07;4.43;;;;;;;13.16;71.29;101994.47;5010922;28;20029;-58
2022/06/13 00:10:09;;;;;;;13.05;4.15;;;;;;;13.14;71.44;101991.06;5011632;28;20033;-58
2022/06/13 00:12:35;;;;;;;10.75;4.38;;;;;;;13.10;71.31;101992.22;5011889;28;20034;-59
2022/06/13 00:15:01;;;;;;;9.25;4.75;;;;;;;13.09;70.89;101990.50;5011735;28;20022;-58
2022/06/13 00:17:26;;;;;;;6.03;4.20;;;;;;;13.09;70.79;101988.69;5012201;28;20014;-58
2022/06/13 00:19:51;;;;;;;9.25;3.90;;;;;;;13.02;71.48;101981.22;5011624;28;20076;-58
2022/06/13 00:22:18;;;;;;;12.43;4.40;;;;;;;12.98;71.49;101980.56;5011084;28;20100;-59
2022/06/13 00:24:44;;;;;;;13.70;4.70;;;;;;;12.94;71.10;101976.44;5007122;28;20445;-58
2022/06/13 00:27:10;;;;;;;12.23;4.97;;;;;;;12.94;71.29;101974.59;5005813;28;20129;-58
2022/06/13 00:29:36;;;;;;;14.88;5.05;;;;;;;12.92;71.78;101983.66;5005471;28;20121;-58
2022/06/13 00:32:02;;;;;;;11.00;5.07;;;;;;;12.92;71.82;101981.00;4999478;28;20049;-58
2022/06/13 00:34:27;;;;;;;11.57;5.03;;;;;;;12.92;71.43;101973.88;4994443;28;20038;-58
2022/06/13 00:36:53;;;;;;;11.13;5.32;;;;;;;12.93;71.57;101972.03;5006975;28;20029;-58
2022/06/13 00:39:18;;;;;;;11.63;5.35;;;;;;;12.94;71.31;101971.94;5014118;28;20065;-58
2022/06/13 00:41:44;;;;;;;13.00;5.20;;;;;;;12.95;71.41;101967.44;5015747;28;20057;-58
2022/06/13 00:44:31;;;;;;;7.38;4.88;;;;;;;12.98;71.03;101966.41;5015286;28;20042;-58
2022/06/13 00:46:57;;;;;;;15.32;5.13;;;;;;;12.93;72.14;101967.56;5015809;28;20045;-59
2022/06/13 00:49:41;;;;;;;12.02;5.20;;;;;;;12.98;71.24;101966.41;5015609;28;20021;-58
2022/06/13 00:52:23;;;;;;;11.88;5.63;;;;;;;12.94;71.60;101958.59;5015143;28;20042;-57
2022/06/13 00:54:51;;;;;;;14.05;5.32;;;;;;;12.93;71.68;101964.03;5015787;28;20418;-58
2022/06/13 00:57:20;;;;;;;11.73;5.50;;;;;;;12.98;71.50;101966.41;5014832;28;20041;-58
2022/06/13 00:59:49;;;;;;;13.05;5.75;;;;;;;12.96;72.53;101969.16;5000536;28;20033;-58
2022/06/13 01:02:15;;;;;;;11.27;5.10;;;;;;;12.99;72.32;101965.41;5010831;28;20085;-58
2022/06/13 01:04:40;;;;;;;13.02;5.28;;;;;;;13.03;72.23;101961.59;5005929;28;20034;-58
2022/06/13 01:07:08;;;;;;;13.20;5.53;;;;;;;13.01;73.07;101967.03;5014945;28;20366;-59
2022/06/13 01:12:18;;;;;;;15.85;5.53;;;;;;;13.04;72.64;101957.94;5014166;28;20053;-58
2022/06/13 01:15:00;;;;;;;13.45;5.63;;;;;;;13.05;72.10;101973.84;5014876;28;20465;-59
2022/06/13 01:17:44;;;;;;;10.88;5.15;;;;;;;13.09;72.63;101958.47;5014849;28;20033;-58
2022/06/13 01:20:22;;;;;;;13.95;5.50;;;;;;;13.09;72.70;101962.03;5014940;28;20030;-59
2022/06/13 01:23:20;;;;;;;10.95;5.28;;;;;;;13.16;72.57;101964.28;5012701;28;20038;-58
2022/06/13 01:26:23;;;;;;;11.95;6.25;;;;;;;13.16;72.68;101959.78;4996017;28;20069;-57
2022/06/13 01:29:06;;;;;;;12.70;6.00;;;;;;;13.16;74.30;101958.94;5013861;28;20045;-58
2022/06/13 01:31:51;;;;;;;12.30;6.05;;;;;;;13.20;73.06;101955.09;5014931;28;20026;-59
2022/06/13 01:34:43;;;;;;;14.27;5.75;;;;;;;13.22;73.23;101961.16;5002110;28;20095;-58
2022/06/13 01:37:22;;;;;;;9.98;5.43;;;;;;;13.25;73.87;101945.78;5011455;28;20026;-58
2022/06/13 01:40:19;;;;;;;13.50;6.10;;;;;;;13.27;72.73;101940.34;5004694;28;20030;-58
2022/06/13 01:43:22;;;;;;;12.40;5.90;;;;;;;13.27;73.88;101940.34;5006119;28;20342;-58
2022/06/13 01:46:10;;;;;;;10.85;5.90;;;;;;;13.30;72.95;101942.81;4936079;29;20040;-58
2022/06/13 01:48:47;;;;;;;9.38;5.57;;;;;;;13.32;73.51;101930.22;4937672;29;20039;-58
2022/06/13 01:51:22;;;;;;;12.63;5.97;;;;;;;13.31;73.11;101944.53;4979608;28;20104;-58
2022/06/13 01:54:06;;;;;;;15.20;6.15;;;;;;;13.31;73.70;101941.84;5009649;28;20037;-58
2022/06/13 01:56:40;;;;;;;13.00;5.50;;;;;;;13.30;73.79;101940.97;5008224;28;20045;-58
2022/06/13 01:59:16;;;;;;;13.02;5.88;;;;;;;13.31;73.34;101934.69;5013500;28;20474;-59
2022/06/13 02:01:44;;;;;;;12.90;5.97;;;;;;;13.31;72.52;101945.38;5014460;28;20029;-58
2022/06/13 02:04:37;;;;;;;13.85;6.18;;;;;;;13.37;72.14;101949.44;5011992;28;20559;-58
2022/06/13 02:07:08;;;;;;;12.25;6.40;;;;;;;13.33;73.10;101953.28;4997085;28;20482;-58
2022/06/13 02:09:41;;;;;;;13.93;6.45;;;;;;;13.35;72.13;101948.69;5010354;28;20433;-58
2022/06/13 02:12:07;;;;;;;11.85;5.78;;;;;;;13.33;72.66;101935.47;5013016;28;20036;-58
2022/06/13 02:14:49;;;;;;;12.63;5.68;;;;;;;13.37;71.75;101941.44;4995594;28;20114;-58
2022/06/13 02:17:18;;;;;;;14.98;6.07;;;;;;;13.31;72.49;101957.84;5013083;28;20036;-59
2022/06/13 02:20:00;;;;;;;13.98;6.20;;;;;;;13.33;72.25;101958.63;5010982;28;20552;-58
2022/06/13 02:22:31;;;;;;;14.15;6.55;;;;;;;13.32;72.71;101949.78;5008717;28;20057;-58
2022/06/13 02:27:36;;;;;;;;;;;;;;;13.43;70.39;101954.34;5068910;23;20104;-79
2022/06/13 02:30:22;;;;;;;10.77;6.45;;;;;;;13.38;71.69;101950.31;5005103;28;19917;-79
2022/06/13 02:32:53;;;;;;;12.07;6.13;;;;;;;13.36;73.04;101938.91;5013776;28;20046;-79
2022/06/13 02:35:35;;;;;;;15.25;6.40;;;;;;;13.39;72.84;101944.00;5012563;28;20105;-79
2022/06/13 02:38:05;;;;;;;17.88;7.20;;;;;;;13.40;73.05;101945.72;5014451;28;20080;-79
2022/06/13 02:40:39;;;;;;;13.18;6.93;;;;;;;13.41;73.85;101937.59;5014139;28;20029;-78
2022/06/13 02:43:09;;;;;;;15.05;6.57;;;;;;;13.45;73.58;101938.22;5011602;28;20081;-78
2022/06/13 02:45:47;;;;;;;13.55;6.40;;;;;;;13.48;73.23;101941.53;5001087;28;20068;-79
2022/06/13 02:48:18;;;;;;;16.73;6.80;;;;;;;13.48;73.90;101930.00;5014729;28;20038;-79
2022/06/13 02:51:08;;;;;;;15.80;6.63;;;;;;;13.51;72.97;101935.97;5008292;28;20113;-79
2022/06/13 02:53:45;;;;;;;16.98;7.25;;;;;;;13.51;73.70;101937.78;5009848;28;20409;-78
2022/06/13 02:56:21;;;;;;;14.20;7.13;;;;;;;13.47;74.98;101936.28;5014443;28;20463;-78
2022/06/13 02:59:23;;;;;;;12.85;7.30;;;;;;;13.51;73.72;101935.97;5000540;28;20049;-78
2022/06/13 03:01:54;;;;;;;16.88;7.28;;;;;;;13.50;74.30;101933.41;5006166;28;20029;-78
2022/06/13 03:04:37;;;;;;;15.88;7.50;;;;;;;13.52;74.55;101936.81;5014198;28;20037;-79
2022/06/13 03:07:23;;;;;;;17.52;7.13;;;;;;;13.48;73.93;101928.19;5002330;28;20026;-78
2022/06/13 03:09:54;;;;;;;18.45;7.63;;;;;;;13.49;74.70;101924.56;5012332;28;20034;-79
2022/06/13 03:12:36;;;;;;;15.45;7.63;;;;;;;13.49;74.38;101934.38;5010284;28;20061;-80
2022/06/13 03:15:12;;;;;;;14.05;6.97;;;;;;;13.48;75.48;101938.84;5002691;28;20475;-79
2022/06/13 03:18:00;;;;;;;15.88;7.05;;;;;;;13.49;74.30;101943.25;5012759;28;20062;-79
2022/06/13 03:20:42;;;;;;;21.95;7.80;;;;;;;13.45;75.42;101943.56;5013259;28;20026;-79
2022/06/13 03:23:38;;;;;;;16.70;6.65;;;;;;;13.48;74.58;101938.00;5013622;28;20021;-79
2022/06/13 03:26:09;;;;;;;14.57;7.45;;;;;;;13.41;75.83;101937.59;5009054;28;20383;-79
2022/06/13 03:28:41;;;;;;;17.65;7.70;;;;;;;13.41;75.74;101947.44;5014096;28;20034;-80
2022/06/13 03:31:13;;;;;;;16.40;7.30;;;;;;;13.39;75.76;101944.00;4982897;28;20130;-79
2022/06/13 03:33:42;;;;;;;18.60;7.80;;;;;;;13.40;75.85;101946.56;4997079;28;20029;-79
2022/06/13 03:36:26;;;;;;;18.38;7.80;;;;;;;13.42;75.51;101941.09;5014189;28;20104;-79
2022/06/13 03:39:01;;;;;;;15.93;7.85;;;;;;;13.41;75.81;101947.44;5010533;28;20034;-79
2022/06/13 03:41:32;;;;;;;16.23;7.75;;;;;;;13.35;76.03;101947.84;5013695;28;20057;-79
2022/06/13 03:44:10;;;;;;;16.98;7.60;;;;;;;13.31;75.35;101953.38;5014979;28;20062;-79
2022/06/13 03:46:53;;;;;;;15.23;7.55;;;;;;;13.33;75.93;101956.81;5014171;28;20521;-79
2022/06/13 03:49:33;;;;;;;15.23;8.32;;;;;;;13.27;76.56;101962.56;5014257;28;20036;-79
2022/06/13 03:52:01;;;;;;;16.02;6.70;;;;;;;13.24;76.53;101957.44;5014263;28;20044;-79
2022/06/13 03:54:34;;;;;;;17.70;8.13;;;;;;;13.25;76.52;101963.63;5014122;28;20084;-79
2022/06/13 03:57:06;;;;;;;16.27;7.45;;;;;;;13.21;76.36;101960.31;5014164;28;20025;-79
2022/06/13 03:59:39;;;;;;;16.60;7.75;;;;;;;13.19;76.79;101969.38;5014346;28;20030;-79
2022/06/13 04:02:09;;;;;;;17.02;7.32;;;;;;;13.18;77.06;101965.03;5014684;28;20033;-79
2022/06/13 04:04:41;;;;;;;12.88;7.15;;;;;;;13.17;76.88;101971.31;5015547;28;20033;-79
2022/06/13 04:07:06;;;;;;;19.08;8.20;;;;;;;13.08;77.64;101962.97;5020738;28;20069;-78
2022/06/13 04:09:38;;;;;;;19.80;8.13;;;;;;;13.11;77.25;101972.59;5011726;28;20030;-79
2022/06/13 04:12:21;;;;;;;18.95;8.13;;;;;;;13.11;77.19;101976.09;5014484;28;20213;-79
2022/06/13 04:15:01;;;;;;;15.38;7.85;;;;;;;13.12;77.21;101968.94;5016031;28;20037;-79
2022/06/13 04:17:50;;;;;;;15.15;7.38;;;;;;;13.13;76.61;101973.34;5017718;28;20030;-79
2022/06/13 04:20:46;;;;;;;14.75;7.80;;;;;;;13.13;77.16;101976.84;5012491;28;20030;-79
2022/06/13 04:23:35;;;;;;;14.63;7.75;;;;;;;13.10;76.97;101979.72;5008599;28;20041;-79
2022/06/13 04:26:00;;;;;;;;;;;;;;;13.19;74.79;101980.03;5005683;28;20105;-79
2022/06/13 04:28:40;;;;;;;18.70;8.75;;;;;;;13.09;77.51;101990.50;5018021;28;20436;-79
2022/06/13 04:31:07;;;;;;;16.05;8.85;;;;;;;13.06;78.39;101985.41;5017635;28;20105;-78
2022/06/13 04:33:36;;;;;;;16.00;8.25;;;;;;;13.05;78.90;101991.69;5017680;28;20032;-79
2022/06/13 04:36:05;;;;;;;21.50;8.40;;;;;;;13.07;78.45;101989.75;5017627;28;20269;-79
2022/06/13 04:38:34;;;;;;;17.48;8.55;;;;;;;13.08;78.26;101994.97;5017895;28;20105;-79
2022/06/13 04:41:04;;;;;;;17.67;8.82;;;;;;;13.08;79.36;101994.97;5017595;28;20164;-80
2022/06/13 04:43:33;;;;;;;;;;;;;;;13.21;75.99;101991.50;5015958;28;20025;-79
2022/06/13 04:46:04;;;;;;;17.23;9.02;;;;;;;13.14;79.63;101999.91;5017859;28;19921;-79
2022/06/13 04:48:31;;;;;;;18.73;8.93;;;;;;;13.17;79.61;101998.81;5017826;28;20030;-79
2022/06/13 04:51:00;;;;;;;16.80;9.25;;;;;;;13.21;79.69;101994.16;4999299;28;20025;-78
2022/06/13 04:53:59;;;;;;;18.73;8.95;;;;;;;13.29;78.40;101995.31;5015728;28;20030;-78
2022/06/13 04:56:25;;;;;;;23.13;9.43;;;;;;;13.30;80.04;101994.34;4992218;28;20125;-79
2022/06/13 04:58:55;;;;;;;22.35;9.82;;;;;;;13.32;80.48;101996.94;5016327;28;20037;-79
2022/06/13 05:01:30;;;;;;;14.35;8.90;;;;;;;13.38;80.29;102001.84;5016335;28;20029;-79
2022/06/13 05:03:59;;;;;;;21.40;9.00;;;;;;;13.40;80.79;102004.41;5004362;28;20057;-79
2022/06/13 05:06:29;;;;;;;20.08;10.38;;;;;;;13.45;81.23;102008.47;4998720;28;20048;-78
2022/06/13 05:09:00;;;;;;;20.88;9.45;;;;;;;13.52;80.18;102008.88;5016153;28;20044;-79
2022/06/13 05:11:35;;;;;;;16.55;9.68;;;;;;;13.58;81.51;102015.63;5016690;28;20029;-79
2022/06/13 05:14:13;;;;;;;20.10;10.32;;;;;;;13.65;81.14;102014.22;5016657;28;20034;-78
2022/06/13 05:16:57;;;;;;;22.52;10.23;;;;;;;13.74;80.43;102010.03;5006987;28;20475;-78
2022/06/13 05:19:48;;;;;;;18.58;10.43;;;;;;;13.79;80.79;102008.75;5001925;28;20559;-79
2022/06/13 05:22:28;;;;;;;22.05;10.10;;;;;;;13.87;80.75;102025.09;5015089;28;20037;-78
2022/06/13 05:25:23;;;;;;;23.23;10.55;;;;;;;13.95;81.07;102023.66;5016385;28;20030;-78
2022/06/13 05:27:48;;;;;;;22.98;10.15;;;;;;;14.02;81.32;102022.25;4957464;28;20100;-78
2022/06/13 05:30:15;;;;;;;21.90;10.32;;;;;;;14.09;81.32;102019.97;4977876;28;20098;-78
2022/06/13 05:32:42;;;;;;;20.77;9.45;;;;;;;14.18;81.08;102028.19;4971541;28;20022;-78
2022/06/13 05:35:12;;;;;;;20.23;9.73;;;;;;;14.28;81.55;102027.53;4985356;28;20031;-78
2022/06/13 05:37:38;;;;;;;21.92;9.82;;;;;;;14.39;80.35;102031.13;4987491;28;20034;-80
2022/06/13 05:40:04;;;;;;;20.33;9.65;;;;;;;14.45;80.06;102035.13;4987161;28;20086;-78
2022/06/13 05:42:29;;;;;;;20.67;9.57;;;;;;;14.56;79.55;102032.53;4980852;28;20031;-80
2022/06/13 05:44:55;;;;;;;17.45;9.30;;;;;;;14.67;79.58;102038.91;4978778;28;20023;-79
2022/06/13 05:47:20;;;;;;;24.08;9.75;;;;;;;14.79;79.44;102038.00;4977640;28;20030;-78
2022/06/13 05:49:46;;;;;;;21.15;9.00;;;;;;;14.85;79.83;102040.19;4977812;28;20031;-80
2022/06/13 05:52:12;;;;;;;21.27;9.45;;;;;;;14.92;79.78;102044.13;4978021;28;20479;-79
2022/06/13 05:54:37;;;;;;;21.45;9.50;;;;;;;15.01;79.36;102041.72;4980041;28;20033;-79
2022/06/13 05:57:03;;;;;;;24.73;9.27;;;;;;;15.07;78.84;102039.44;4997478;28;20030;-79
2022/06/13 05:59:29;;;;;;;21.77;9.50;;;;;;;15.12;78.44;102042.63;4976728;28;20506;-79
2022/06/13 06:01:54;;;;;;;21.92;9.13;;;;;;;15.16;78.33;102051.25;4985089;28;20034;-79
2022/06/13 06:04:20;;;;;;;19.27;9.00;;;;;;;15.23;78.59;102059.66;4969484;28;20043;-80
2022/06/13 06:06:45;;;;;;;21.20;9.38;;;;;;;15.28;77.91;102063.69;4971809;28;20291;-79
2022/06/13 06:09:13;;;;;;;24.45;9.43;;;;;;;15.34;78.04;102062.38;4979785;28;20019;-79
2022/06/13 06:11:39;;;;;;;25.40;9.52;;;;;;;15.43;77.68;102068.81;4967311;28;20049;-80
2022/06/13 06:14:04;;;;;;;18.90;9.05;;;;;;;15.50;77.37;102065.56;4978011;28;20035;-79
2022/06/13 06:16:30;;;;;;;20.85;8.20;;;;;;;15.55;76.87;102078.56;4976250;28;20079;-80
2022/06/13 06:18:56;;;;;;;15.65;7.82;;;;;;;15.65;76.34;102076.88;4975896;28;20055;-81
2022/06/13 06:21:22;;;;;;;19.52;7.70;;;;;;;15.75;75.02;102079.69;4971722;28;20027;-81
2022/06/13 06:23:47;;;;;;;17.17;7.72;;;;;;;15.85;74.87;102082.50;4977284;28;20130;-78
2022/06/13 06:26:15;;;;;;;23.65;7.80;;;;;;;15.94;74.27;102083.59;4989638;28;20470;-79
2022/06/13 06:28:40;;;;;;;21.92;7.47;;;;;;;16.00;72.87;102072.41;5015477;28;20133;-79
2022/06/13 06:31:05;;;;;;;19.95;7.85;;;;;;;16.12;73.85;102082.16;4996309;28;20101;-79
2022/06/13 06:33:34;;;;;;;15.25;6.43;;;;;;;16.19;73.36;102082.50;5014626;28;20493;-79
2022/06/13 06:35:59;;;;;;;17.40;6.30;;;;;;;16.23;70.82;102089.31;4996468;28;20789;-81
2022/06/13 06:38:27;;;;;;;13.02;5.15;;;;;;;16.27;70.71;102096.16;5014839;28;20049;-79
2022/06/13 06:40:53;;;;;;;11.75;4.75;;;;;;;16.25;70.42;102095.41;5015621;28;20033;-79
2022/06/13 06:43:19;;;;;;;15.10;4.60;;;;;;;16.32;68.68;102101.13;5013680;28;20092;-79
2022/06/13 06:45:44;;;;;;;10.27;4.03;;;;;;;16.61;67.58;102099.59;5015158;28;20037;-80
2022/06/13 06:48:15;;;;;;;11.27;3.80;;;;;;;16.87;68.08;102106.50;5015141;28;20034;-79
2022/06/13 06:50:43;;;;;;;11.13;4.00;;;;;;;17.11;66.92;102107.13;5017415;28;20061;-79
2022/06/13 06:53:10;;;;;;;11.85;3.75;;;;;;;17.34;65.71;102105.16;5023831;28;20036;-80
2022/06/13 07:01:07;;;;;;;9.80;3.30;;;;;;;17.92;60.94;102114.59;5015536;28;20057;-78
2022/06/13 07:03:32;;;;;;;10.18;3.20;;;;;;;18.16;60.67;102111.53;5015331;28;20030;-79
2022/06/13 07:05:58;;;;;;;10.35;2.67;;;;;;;18.34;58.11;102110.91;5015138;28;20036;-77
2022/06/13 07:08:23;;;;;;;9.43;2.85;;;;;;;18.59;57.82;102109.53;5014824;28;20038;-77
2022/06/13 07:10:49;;;;;;;12.95;3.72;;;;;;;18.85;55.90;102109.84;5004375;28;20026;-78
2022/06/13 07:13:16;;;;;;;51.13;4.95;;;;;;;19.18;56.48;102103.19;5006012;28;20063;-78
2022/06/13 07:15:41;;;;;;;7.50;2.60;;;;;;;19.48;55.08;102109.38;5013289;28;20030;-78
2022/06/13 07:18:08;;;;;;;8.48;2.53;;;;;;;19.65;54.01;102104.22;5007398;28;20379;-79
2022/06/13 07:20:35;;;;;;;9.15;2.55;;;;;;;19.90;51.55;102111.72;5013362;28;20112;-80
2022/06/13 07:23:00;;;;;;;6.85;2.60;;;;;;;20.30;52.83;102106.94;5002743;28;20053;-80
2022/06/13 07:25:29;;;;;;;10.02;2.67;;;;;;;20.45;52.27;102108.16;5026038;28;20034;-81
2022/06/13 07:27:55;;;;;;;11.90;3.33;;;;;;;20.78;50.67;102118.47;5035466;28;20033;-81
2022/06/13 07:30:23;;;;;;;8.77;2.35;;;;;;;21.06;49.71;102108.44;5033905;28;20064;-81
2022/06/13 07:32:53;;;;;;;8.98;2.60;;;;;;;21.22;48.80;102111.28;5018317;28;20085;-81
2022/06/13 07:35:22;;;;;;;11.35;2.60;;;;;;;21.29;49.92;102107.94;5034159;28;20018;-80
2022/06/13 07:40:32;;;;;;;8.10;2.67;;;;;;;21.59;47.29;102115.59;5032315;28;20057;-80
2022/06/13 07:43:03;;;;;;;8.10;2.53;;;;;;;21.83;47.82;102111.34;5028576;28;20044;-81
2022/06/13 07:45:33;;;;;;;8.07;2.40;;;;;;;21.85;47.30;102117.47;5014901;28;20069;-80
2022/06/13 07:47:58;;;;;;;8.25;2.45;;;;;;;21.71;46.83;102118.88;5025996;28;20081;-79
2022/06/13 07:50:28;;;;;;;8.10;2.70;;;;;;;22.02;47.21;102122.97;4998823;28;20038;-77
2022/06/13 07:52:57;;;;;;;13.15;2.92;;;;;;;22.39;45.89;102125.31;4996161;28;20371;-76
2022/06/13 07:55:31;;;;;;;7.47;2.60;;;;;;;22.40;45.35;102123.44;5016331;28;20519;-77
2022/06/13 07:57:56;;;;;;;8.00;3.38;;;;;;;22.61;45.15;102125.72;5015021;28;20026;-77
2022/06/13 08:00:25;;;;;;;10.02;2.70;;;;;;;22.71;43.30;102129.94;5022594;28;20056;-79
2022/06/13 08:02:51;;;;;;;6.47;2.10;;;;;;;22.83;43.98;102130.50;5022939;28;20033;-80
2022/06/13 08:05:17;;;;;;;9.52;2.67;;;;;;;23.07;42.65;102128.84;5018156;28;20394;-79
2022/06/13 08:07:42;;;;;;;12.10;3.25;;;;;;;23.31;42.09;102133.41;5023592;28;20065;-79
2022/06/13 08:10:08;;;;;;;8.48;2.92;;;;;;;23.53;42.70;102139.16;5031922;28;20014;-80
2022/06/13 08:12:34;;;;;;;9.82;2.95;;;;;;;23.65;42.54;102141.34;5012628;28;20080;-80
2022/06/13 08:14:59;;;;;;;15.90;8.18;;;;;;;23.75;42.03;102143.88;5005343;28;20038;-79
2022/06/13 08:17:24;;;;;;;8.30;3.22;;;;;;;23.87;40.68;102147.09;5013503;28;20025;-79
2022/06/13 08:19:52;;;;;;;9.13;2.57;;;;;;;23.93;40.11;102149.13;5004198;28;20382;-80
2022/06/13 08:22:18;;;;;;;8.57;2.57;;;;;;;23.96;39.47;102150.63;5013154;28;20290;-81
2022/06/13 08:24:44;;;;;;;9.32;2.50;;;;;;;23.77;39.08;102144.53;5010917;28;20338;-80
2022/06/13 08:27:10;;;;;;;7.95;2.05;;;;;;;23.52;39.71;102159.16;5011174;28;20048;-81
2022/06/13 08:29:35;;;;;;;7.30;2.15;;;;;;;23.35;39.33;102158.31;5012507;28;20021;-80
2022/06/13 08:32:01;;;;;;;7.75;2.08;;;;;;;23.20;39.43;102164.44;5013257;28;20067;-80
2022/06/13 08:34:27;;;;;;;9.18;2.35;;;;;;;23.19;40.71;102159.19;5013073;28;20045;-80
2022/06/13 08:36:53;;;;;;;10.13;2.40;;;;;;;23.20;41.06;102166.28;5013368;28;20038;-80
2022/06/13 08:39:19;;;;;;;10.80;2.65;;;;;;;23.49;40.95;102165.75;5013332;28;20021;-80
2022/06/13 08:42:05;;;;;;;10.00;2.67;;;;;;;23.79;42.28;102157.94;5012889;28;20486;-80
2022/06/13 08:44:47;;;;;;;9.68;2.45;;;;;;;24.00;41.69;102160.94;4995031;28;20033;-80
2022/06/13 08:47:37;;;;;;;8.18;2.40;;;;;;;24.23;39.72;102159.34;5013093;28;20034;-81
2022/06/13 08:50:40;;;;;;;7.35;1.90;;;;;;;24.60;40.54;102163.25;5012829;28;20092;-81
2022/06/13 08:53:15;;;;;;;4.68;1.90;;;;;;;24.88;39.52;102169.03;5010094;28;20030;-80
2022/06/13 08:55:47;;;;;;;7.40;2.20;;;;;;;25.37;38.31;102170.56;5012675;28;20030;-81
2022/06/13 08:58:36;;;;;;;6.47;2.70;;;;;;;25.21;39.77;102166.06;5009842;28;20044;-80
2022/06/13 09:01:13;;;;;;;6.28;2.45;;;;;;;25.02;38.23;102175.56;5015443;28;20026;-79
2022/06/13 09:03:53;;;;;;;10.05;2.42;;;;;;;25.12;38.66;102171.56;4989489;28;20033;-79
2022/06/13 09:06:28;;;;;;;4.53;1.73;;;;;;;24.94;37.28;102181.91;5012918;28;20080;-79
2022/06/13 09:09:02;;;;;;;6.82;1.92;;;;;;;24.71;37.17;102179.16;5002984;28;20030;-79
2022/06/13 09:11:56;;;;;;;6.00;1.42;;;;;;;24.78;37.91;102182.88;5012492;28;20036;-78
2022/06/13 09:14:29;;;;;;;8.88;1.85;;;;;;;24.24;36.05;102188.19;5008379;28;20025;-79
2022/06/13 09:17:20;;;;;;;8.20;1.80;;;;;;;23.95;38.10;102185.06;5012925;28;20022;-79
2022/06/13 09:19:57;;;;;;;6.15;1.63;;;;;;;24.16;37.73;102189.94;5013831;28;20034;-79
2022/06/13 09:22:26;;;;;;;7.55;1.55;;;;;;;24.47;36.08;102190.97;5012158;28;20467;-79
2022/06/13 09:25:07;;;;;;;5.07;1.27;;;;;;;24.44;38.38;102191.34;5014603;28;20025;-79
2022/06/13 09:27:40;;;;;;;3.95;1.42;;;;;;;24.14;37.03;102194.66;5009478;28;20050;-79
2022/06/13 09:30:20;;;;;;;3.15;1.20;;;;;;;24.62;37.98;102196.53;5016481;28;20057;-77
2022/06/13 09:32:56;;;;;;;5.88;1.38;;;;;;;24.38;36.15;102192.88;5013466;28;20045;-79
2022/06/13 09:35:36;;;;;;;4.28;1.30;;;;;;;24.20;37.19;102198.56;5027547;28;20082;-78
2022/06/13 09:38:27;;;;;;;5.13;1.33;;;;;;;24.05;37.63;102205.72;5016035;28;20485;-78
2022/06/13 09:41:02;;;;;;;4.07;1.50;;;;;;;23.81;38.12;102213.72;5002765;28;20072;-78
2022/06/13 09:43:49;;;;;;;3.75;1.50;;;;;;;23.77;39.17;102220.50;5016523;28;20525;-78
2022/06/13 09:46:30;;;;;;;7.15;2.28;;;;;;;23.53;39.85;102221.38;5014115;28;20108;-79
2022/06/13 09:49:07;;;;;;;8.95;2.35;;;;;;;23.71;39.85;102217.63;5017191;28;20028;-78
2022/06/13 09:51:50;;;;;;;7.38;2.75;;;;;;;23.39;40.67;102222.88;5013798;28;20041;-78
2022/06/13 09:54:33;;;;;;;5.55;2.05;;;;;;;23.30;40.36;102223.91;5013825;28;20030;-79
2022/06/13 09:57:24;;;;;;;5.85;2.15;;;;;;;23.24;40.65;102230.00;5013548;28;20033;-78
2022/06/13 10:00:12;;;;;;;10.15;3.53;;;;;;;22.96;42.11;102227.53;5009575;28;20041;-80
2022/06/13 10:02:47;;;;;;;10.30;3.50;;;;;;;22.94;42.13;102226.03;5016595;28;20378;-79
2022/06/13 10:05:27;;;;;;;7.40;2.65;;;;;;;22.94;40.69;102223.31;5010354;28;20037;-79
2022/06/13 10:08:11;;;;;;;6.35;1.90;;;;;;;22.82;38.99;102231.75;5013005;28;20033;-79
2022/06/13 10:10:56;;;;;;;7.32;1.73;;;;;;;22.80;38.95;102238.31;5013646;28;20062;-79
2022/06/13 10:13:46;;;;;;;6.13;1.90;;;;;;;22.79;39.17;102242.91;5013116;28;20040;-79
2022/06/13 10:16:17;;;;;;;5.38;1.60;;;;;;;22.71;39.20;102241.00;5014143;28;20497;-78
2022/06/13 10:19:07;;;;;;;8.38;1.60;;;;;;;22.67;40.02;102233.38;5006875;28;20030;-79
2022/06/13 10:21:48;;;;;;;4.72;1.30;;;;;;;22.85;39.72;102234.13;5012953;28;20455;-80
2022/06/13 10:24:48;;;;;;;10.55;2.92;;;;;;;23.41;40.48;102228.97;4993949;28;20030;-79
2022/06/13 10:27:35;;;;;;;5.97;2.33;;;;;;;23.56;40.07;102226.44;5005993;28;20048;-80
2022/06/13 10:30:15;;;;;;;7.53;3.13;;;;;;;23.56;39.40;102226.44;5013374;28;20034;-79
2022/06/13 10:33:10;;;;;;;5.95;1.60;;;;;;;23.80;38.60;102228.28;5012124;28;20038;-79
2022/06/13 10:36:14;;;;;;;6.32;1.70;;;;;;;24.18;38.85;102219.56;5009091;28;20065;-80
2022/06/13 10:39:02;;;;;;;6.95;2.10;;;;;;;24.49;36.92;102230.50;5009852;28;20030;-79
2022/06/13 10:41:29;;;;;;;5.88;2.00;;;;;;;24.42;35.78;102228.69;4993669;28;20045;-78
2022/06/13 10:43:58;;;;;;;5.38;1.90;;;;;;;24.58;35.66;102227.78;5013868;28;20363;-79
2022/06/13 10:46:24;;;;;;;8.15;2.53;;;;;;;25.16;36.13;102225.59;4996331;28;20050;-80
2022/06/13 10:48:58;;;;;;;4.53;2.30;;;;;;;25.34;36.69;102225.31;5013632;28;20022;-79
2022/06/13 10:51:24;;;;;;;8.02;1.95;;;;;;;25.32;35.43;102230.94;5013223;28;20125;-79
2022/06/13 10:54:15;;;;;;;5.55;1.35;;;;;;;25.73;36.83;102233.31;5013768;28;20104;-78
2022/06/13 10:56:40;;;;;;;4.10;1.85;;;;;;;26.11;34.21;102232.44;5004612;28;20541;-79
2022/06/13 10:59:05;;;;;;;5.63;2.60;;;;;;;25.85;34.37;102236.44;5014518;28;20022;-80
2022/06/13 11:01:35;;;;;;;5.97;2.67;;;;;;;25.74;34.24;102226.00;5014995;28;20050;-80
2022/06/13 11:04:17;;;;;;;8.00;2.45;;;;;;;25.47;35.32;102234.53;5012646;28;20261;-79
2022/06/13 11:06:46;;;;;;;5.95;2.38;;;;;;;25.48;35.80;102240.84;5011423;28;20073;-80
2022/06/13 11:09:41;;;;;;;6.18;1.65;;;;;;;25.21;34.34;102240.31;4994257;28;20052;-79
2022/06/13 11:12:28;;;;;;;7.78;1.52;;;;;;;25.36;34.95;102245.84;5011538;28;20148;-79
2022/06/13 11:23:21;;;;;;;4.78;1.30;;;;;;;24.89;33.66;102249.53;5010335;28;20040;-80
2022/06/13 11:25:56;;;;;;;7.05;1.25;;;;;;;24.68;34.43;102259.16;5012990;28;20072;-80
2022/06/13 11:28:27;;;;;;;3.78;1.10;;;;;;;24.78;35.43;102241.78;5012795;28;20502;-80
2022/06/13 11:31:26;;;;;;;3.88;1.30;;;;;;;25.02;34.59;102238.94;5012925;28;20057;-80
2022/06/13 11:33:53;;;;;;;5.03;1.02;;;;;;;25.12;31.48;102250.41;5007974;28;20030;-79
2022/06/13 11:36:24;;;;;;;5.93;1.48;;;;;;;25.18;33.68;102240.72;5012685;28;20447;-80
2022/06/13 11:38:53;;;;;;;8.15;1.52;;;;;;;25.54;32.31;102229.22;5004753;28;20370;-80
2022/06/13 11:41:32;;;;;;;5.65;1.70;;;;;;;25.59;32.40;102236.84;5012689;28;20061;-81
2022/06/13 11:44:11;;;;;;;5.03;1.30;;;;;;;25.09;32.83;102244.50;5013757;28;20042;-80
2022/06/13 11:46:36;;;;;;;4.75;1.20;;;;;;;24.90;33.87;102243.94;5011397;28;20036;-80
2022/06/13 11:49:13;;;;;;;3.83;0.90;;;;;;;24.87;34.71;102244.28;5012754;28;20030;-79
2022/06/13 11:51:56;;;;;;;3.67;1.17;;;;;;;24.68;34.35;102242.00;4994550;28;20030;-78
2022/06/13 11:54:56;;;;;;;4.15;1.05;;;;;;;24.54;35.65;102241.69;5011276;28;20030;-79
2022/06/13 11:57:24;;;;;;;3.17;1.20;;;;;;;24.75;36.53;102237.56;4994719;28;20562;-79
2022/06/13 12:00:05;;;;;;;4.93;1.45;;;;;;;24.84;36.67;102239.19;5009599;28;20065;-79
2022/06/13 12:03:03;;;;;;;7.03;1.40;;;;;;;25.27;33.96;102238.78;5012635;28;20038;-79
2022/06/13 12:05:39;;;;;;;4.90;1.60;;;;;;;25.30;34.60;102246.59;5005040;28;20525;-78
2022/06/13 12:08:24;;;;;;;7.28;1.10;;;;;;;25.31;34.07;102237.41;5012728;28;20293;-79
2022/06/13 12:10:57;;;;;;;3.60;1.17;;;;;;;25.25;33.70;102236.22;5015324;28;20378;-79
2022/06/13 12:13:23;;;;;;;5.07;1.60;;;;;;;25.06;33.28;102250.28;5028477;28;20049;-79
2022/06/13 12:16:22;;;;;;;2.88;1.33;;;;;;;25.05;35.16;102251.34;5014542;28;20418;-80